Time,TemperatureF,DewpointF,PressureIn,WindDirection,WindDirectionDegrees,WindSpeedMPH,WindSpeedGustMPH,Humidity,HourlyPrecipIn,Conditions,Clouds,dailyrainin,SoftwareType,DateUTC
2013-02-27 00:08:00,58.9,53.0,29.99,NNW,338,0.0,1.0,80,0.00,,,0.00,weatherlink.com 1.10,2013-02-26 22:08:00,
2013-02-27 00:27:00,58.6,52.0,29.98,NNW,339,0.0,1.0,80,0.00,,,0.00,weatherlink.com 1.10,2013-02-26 22:27:00,
2013-02-27 00:39:00,58.1,52.0,29.98,NNW,338,0.0,0.0,81,0.00,,,0.00,weatherlink.com 1.10,2013-02-26 22:39:00,
2013-02-27 00:53:00,57.8,52.0,29.98,NNW,339,0.0,1.0,81,0.00,,,0.00,weatherlink.com 1.10,2013-02-26 22:53:00,
2013-02-27 01:09:00,57.7,52.0,29.98,NNW,339,0.0,0.0,81,0.00,,,0.00,weatherlink.com 1.10,2013-02-26 23:09:00,
2013-02-27 01:24:00,57.6,52.0,29.98,NNW,338,0.0,0.0,81,0.00,,,0.00,weatherlink.com 1.10,2013-02-26 23:24:00,
2013-02-27 01:39:00,58.5,51.0,29.98,West,263,0.0,1.0,76,0.00,,,0.00,weatherlink.com 1.10,2013-02-26 23:39:00,
2013-02-27 01:54:00,58.3,51.0,29.98,West,264,0.0,1.0,78,0.00,,,0.00,weatherlink.com 1.10,2013-02-26 23:54:00,
2013-02-27 02:09:00,58.4,51.0,29.98,West,264,0.0,0.0,77,0.00,,,0.00,weatherlink.com 1.10,2013-02-27 00:09:00,
2013-02-27 02:24:00,58.2,51.0,29.98,West,264,0.0,0.0,78,0.00,,,0.00,weatherlink.com 1.10,2013-02-27 00:24:00,
2013-02-27 02:39:00,58.2,51.0,29.98,East,98,0.0,2.0,76,0.00,,,0.00,weatherlink.com 1.10,2013-02-27 00:39:00,
2013-02-27 02:54:00,58.5,50.0,29.97,SE,125,0.0,2.0,74,0.00,,,0.00,weatherlink.com 1.10,2013-02-27 00:54:00,
2013-02-27 03:09:00,58.0,49.0,29.98,SE,131,0.0,2.0,73,0.00,,,0.00,weatherlink.com 1.10,2013-02-27 01:09:00,
2013-02-27 03:24:00,57.7,49.0,29.98,South,187,1.0,2.0,73,0.00,,,0.00,weatherlink.com 1.10,2013-02-27 01:24:00,
2013-02-27 03:39:00,57.9,49.0,29.98,SE,140,0.0,1.0,72,0.00,,,0.00,weatherlink.com 1.10,2013-02-27 01:39:00,
2013-02-27 03:55:00,58.0,49.0,29.98,SE,136,1.0,3.0,71,0.00,,,0.00,weatherlink.com 1.10,2013-02-27 01:55:00,
2013-02-27 04:09:00,57.8,48.0,29.98,SSE,160,0.0,3.0,70,0.00,,,0.00,weatherlink.com 1.10,2013-02-27 02:09:00,
2013-02-27 04:25:00,57.4,48.0,29.98,SE,145,0.0,1.0,71,0.00,,,0.00,weatherlink.com 1.10,2013-02-27 02:25:00,
2013-02-27 04:40:00,56.8,48.0,29.98,SSE,153,0.0,1.0,73,0.00,,,0.00,weatherlink.com 1.10,2013-02-27 02:40:00,
2013-02-27 04:55:00,56.2,48.0,29.98,SE,139,0.0,1.0,75,0.00,,,0.00,weatherlink.com 1.10,2013-02-27 02:55:00,
2013-02-27 05:10:00,56.0,49.0,29.98,SE,143,0.0,0.0,76,0.00,,,0.00,weatherlink.com 1.10,2013-02-27 03:10:00,
2013-02-27 05:24:00,55.7,49.0,29.99,SE,142,0.0,1.0,77,0.00,,,0.00,weatherlink.com 1.10,2013-02-27 03:24:00,
2013-02-27 05:41:00,55.1,49.0,29.98,SE,143,0.0,0.0,79,0.00,,,0.00,weatherlink.com 1.10,2013-02-27 03:41:00,
2013-02-27 05:55:00,55.0,49.0,29.98,SSW,198,0.0,1.0,81,0.00,,,0.00,weatherlink.com 1.10,2013-02-27 03:55:00,
2013-02-27 06:11:00,54.7,50.0,29.98,SW,222,1.0,2.0,84,0.00,,,0.00,weatherlink.com 1.10,2013-02-27 04:11:00,
2013-02-27 06:25:00,54.4,50.0,29.98,SSE,164,0.0,1.0,86,0.00,,,0.00,weatherlink.com 1.10,2013-02-27 04:25:00,
2013-02-27 06:40:00,55.2,52.0,29.98,SSE,163,1.0,2.0,89,0.00,,,0.00,weatherlink.com 1.10,2013-02-27 04:40:00,
2013-02-27 06:55:00,55.9,53.0,29.98,SE,143,0.0,2.0,91,0.00,,,0.00,weatherlink.com 1.10,2013-02-27 04:55:00,
2013-02-27 07:10:00,56.6,54.0,29.99,SSE,148,1.0,3.0,92,0.00,,,0.00,weatherlink.com 1.10,2013-02-27 05:10:00,
2013-02-27 07:25:00,57.2,55.0,29.99,West,263,1.0,1.0,93,0.00,,,0.00,weatherlink.com 1.10,2013-02-27 05:25:00,
2013-02-27 07:40:00,57.3,56.0,30.00,SW,236,1.0,2.0,94,0.00,,,0.00,weatherlink.com 1.10,2013-02-27 05:40:00,
2013-02-27 07:55:00,57.6,56.0,30.00,SE,145,0.0,1.0,94,0.00,,,0.00,weatherlink.com 1.10,2013-02-27 05:55:00,
2013-02-27 08:10:00,58.5,57.0,30.00,NW,320,0.0,1.0,94,0.00,,,0.00,weatherlink.com 1.10,2013-02-27 06:10:00,
2013-02-27 08:27:00,58.9,57.0,30.00,SSE,160,0.0,5.0,94,0.00,,,0.00,weatherlink.com 1.10,2013-02-27 06:27:00,
2013-02-27 08:41:00,59.0,57.0,30.00,WNW,297,0.0,5.0,94,0.00,,,0.00,weatherlink.com 1.10,2013-02-27 06:41:00,
2013-02-27 08:56:00,59.5,58.0,30.01,SSE,150,2.0,4.0,94,0.00,,,0.00,weatherlink.com 1.10,2013-02-27 06:56:00,
2013-02-27 09:11:00,60.1,58.0,30.01,SE,124,2.0,5.0,92,0.00,,,0.00,weatherlink.com 1.10,2013-02-27 07:11:00,
2013-02-27 09:26:00,60.6,57.0,30.01,WNW,290,0.0,6.0,89,0.00,,,0.00,weatherlink.com 1.10,2013-02-27 07:26:00,
2013-02-27 09:40:00,61.5,58.0,30.02,South,180,2.0,6.0,88,0.00,,,0.00,weatherlink.com 1.10,2013-02-27 07:40:00,
2013-02-27 09:57:00,62.7,58.0,30.02,SSW,211,1.0,4.0,85,0.00,,,0.00,weatherlink.com 1.10,2013-02-27 07:57:00,
2013-02-27 10:12:00,64.1,58.0,30.02,WSW,238,2.0,6.0,81,0.00,,,0.00,weatherlink.com 1.10,2013-02-27 08:12:00,
2013-02-27 10:26:00,65.7,59.0,30.01,SSE,159,3.0,5.0,78,0.00,,,0.00,weatherlink.com 1.10,2013-02-27 08:26:00,
2013-02-27 10:41:00,65.9,58.0,30.00,East,100,2.0,6.0,75,0.00,,,0.00,weatherlink.com 1.10,2013-02-27 08:41:00,
2013-02-27 10:56:00,66.7,59.0,30.01,SSE,160,3.0,8.0,75,0.00,,,0.00,weatherlink.com 1.10,2013-02-27 08:56:00,
2013-02-27 11:13:00,67.6,59.0,30.00,South,173,4.0,10.0,73,0.00,,,0.00,weatherlink.com 1.10,2013-02-27 09:13:00,
2013-02-27 11:26:00,68.9,60.0,30.00,SW,216,0.0,7.0,73,0.00,,,0.00,weatherlink.com 1.10,2013-02-27 09:26:00,
2013-02-27 11:41:00,70.0,58.0,30.00,SSW,194,4.0,8.0,67,0.00,,,0.00,weatherlink.com 1.10,2013-02-27 09:41:00,
2013-02-27 11:56:00,70.0,56.0,29.99,NW,304,0.0,9.0,62,0.00,,,0.00,weatherlink.com 1.10,2013-02-27 09:56:00,
2013-02-27 12:12:00,70.2,56.0,29.99,SSW,195,6.0,7.0,61,0.00,,,0.00,weatherlink.com 1.10,2013-02-27 10:12:00,
2013-02-27 12:26:00,70.1,57.0,29.99,SW,236,5.0,10.0,64,0.00,,,0.00,weatherlink.com 1.10,2013-02-27 10:26:00,
2013-02-27 12:41:00,69.6,58.0,29.99,WNW,293,2.0,8.0,66,0.00,,,0.00,weatherlink.com 1.10,2013-02-27 10:41:00,
2013-02-27 12:56:00,70.2,56.0,29.98,SSW,208,3.0,9.0,61,0.00,,,0.00,weatherlink.com 1.10,2013-02-27 10:56:00,
2013-02-27 13:14:00,70.2,55.0,29.98,West,262,4.0,7.0,58,0.00,,,0.00,weatherlink.com 1.10,2013-02-27 11:14:00,
2013-02-27 13:28:00,69.9,56.0,29.99,WNW,287,3.0,10.0,62,0.00,,,0.00,weatherlink.com 1.10,2013-02-27 11:28:00,
2013-02-27 13:43:00,69.4,58.0,29.98,West,281,5.0,10.0,68,0.00,,,0.00,weatherlink.com 1.10,2013-02-27 11:43:00,
2013-02-27 13:56:00,68.2,58.0,29.99,WNW,301,7.0,12.0,69,0.00,,,0.00,weatherlink.com 1.10,2013-02-27 11:56:00,
2013-02-27 14:12:00,68.4,58.0,29.99,West,264,7.0,11.0,69,0.00,,,0.00,weatherlink.com 1.10,2013-02-27 12:12:00,
2013-02-27 14:27:00,67.8,57.0,29.99,West,273,6.0,12.0,69,0.00,,,0.00,weatherlink.com 1.10,2013-02-27 12:27:00,
2013-02-27 14:42:00,67.9,58.0,29.99,WSW,240,3.0,9.0,70,0.00,,,0.00,weatherlink.com 1.10,2013-02-27 12:42:00,
2013-02-27 14:58:00,67.3,59.0,29.99,WNW,287,5.0,11.0,75,0.00,,,0.00,weatherlink.com 1.10,2013-02-27 12:58:00,
2013-02-27 15:13:00,67.0,59.0,29.98,NW,325,4.0,10.0,75,0.00,,,0.00,weatherlink.com 1.10,2013-02-27 13:13:00,
2013-02-27 15:27:00,67.2,59.0,29.98,WSW,249,2.0,7.0,74,0.00,,,0.00,weatherlink.com 1.10,2013-02-27 13:27:00,
2013-02-27 15:43:00,67.1,59.0,29.98,WSW,256,3.0,8.0,75,0.00,,,0.00,weatherlink.com 1.10,2013-02-27 13:43:00,
2013-02-27 15:57:00,67.4,59.0,29.99,SW,233,7.0,7.0,75,0.00,,,0.00,weatherlink.com 1.10,2013-02-27 13:57:00,
2013-02-27 16:13:00,67.4,59.0,29.99,West,264,3.0,6.0,75,0.00,,,0.00,weatherlink.com 1.10,2013-02-27 14:13:00,
2013-02-27 16:27:00,67.6,59.0,29.99,WSW,255,3.0,6.0,74,0.00,,,0.00,weatherlink.com 1.10,2013-02-27 14:27:00,
2013-02-27 16:42:00,66.3,59.0,30.00,West,274,3.0,6.0,77,0.00,,,0.00,weatherlink.com 1.10,2013-02-27 14:42:00,
2013-02-27 16:57:00,65.1,59.0,30.00,West,264,3.0,6.0,80,0.00,,,0.00,weatherlink.com 1.10,2013-02-27 14:57:00,
2013-02-27 17:14:00,64.4,58.0,30.00,West,278,1.0,6.0,81,0.00,,,0.00,weatherlink.com 1.10,2013-02-27 15:14:00,
2013-02-27 17:27:00,64.2,59.0,30.00,West,278,2.0,3.0,82,0.00,,,0.00,weatherlink.com 1.10,2013-02-27 15:27:00,
2013-02-27 17:43:00,63.7,59.0,30.01,WNW,297,2.0,3.0,83,0.00,,,0.00,weatherlink.com 1.10,2013-02-27 15:43:00,
2013-02-27 17:58:00,63.6,58.0,30.01,WNW,300,0.0,2.0,83,0.00,,,0.00,weatherlink.com 1.10,2013-02-27 15:58:00,
2013-02-27 18:13:00,63.2,58.0,30.01,SW,233,1.0,3.0,82,0.00,,,0.00,weatherlink.com 1.10,2013-02-27 16:13:00,
2013-02-27 18:28:00,62.9,58.0,30.01,West,263,0.0,3.0,83,0.00,,,0.00,weatherlink.com 1.10,2013-02-27 16:28:00,
2013-02-27 18:43:00,62.5,58.0,30.01,SSE,156,0.0,3.0,84,0.00,,,0.00,weatherlink.com 1.10,2013-02-27 16:43:00,
2013-02-27 18:58:00,62.1,58.0,30.01,SSW,211,0.0,1.0,85,0.00,,,0.00,weatherlink.com 1.10,2013-02-27 16:58:00,
2013-02-27 19:14:00,61.9,57.0,30.02,SSE,159,0.0,2.0,85,0.00,,,0.00,weatherlink.com 1.10,2013-02-27 17:14:00,
2013-02-27 19:27:00,61.6,57.0,30.02,SSE,155,0.0,1.0,86,0.00,,,0.00,weatherlink.com 1.10,2013-02-27 17:27:00,
2013-02-27 19:42:00,60.4,56.0,30.02,SSE,155,0.0,0.0,86,0.00,,,0.00,weatherlink.com 1.10,2013-02-27 17:42:00,
2013-02-27 19:58:00,59.9,56.0,30.02,SSE,155,0.0,1.0,87,0.00,,,0.00,weatherlink.com 1.10,2013-02-27 17:58:00,
2013-02-27 20:13:00,59.6,56.0,30.02,SSE,155,0.0,0.0,88,0.00,,,0.00,weatherlink.com 1.10,2013-02-27 18:13:00,
2013-02-27 20:29:00,59.0,55.0,30.02,SSE,155,0.0,1.0,87,0.00,,,0.00,weatherlink.com 1.10,2013-02-27 18:29:00,
2013-02-27 20:42:00,58.6,55.0,30.03,SSE,155,0.0,1.0,89,0.00,,,0.00,weatherlink.com 1.10,2013-02-27 18:42:00,
2013-02-27 20:57:00,58.1,55.0,30.03,SSE,155,0.0,1.0,89,0.00,,,0.00,weatherlink.com 1.10,2013-02-27 18:57:00,
2013-02-27 21:12:00,58.1,55.0,30.03,SSE,155,0.0,0.0,90,0.00,,,0.00,weatherlink.com 1.10,2013-02-27 19:12:00,
2013-02-27 21:27:00,57.8,55.0,30.03,SSE,155,0.0,0.0,90,0.00,,,0.00,weatherlink.com 1.10,2013-02-27 19:27:00,
2013-02-27 21:42:00,57.9,55.0,30.03,SSE,155,0.0,0.0,90,0.00,,,0.00,weatherlink.com 1.10,2013-02-27 19:42:00,
2013-02-27 21:58:00,57.1,54.0,30.03,SSE,155,0.0,1.0,89,0.00,,,0.00,weatherlink.com 1.10,2013-02-27 19:58:00,
2013-02-27 22:14:00,56.9,54.0,30.04,SSE,155,0.0,1.0,90,0.00,,,0.00,weatherlink.com 1.10,2013-02-27 20:14:00,
2013-02-27 22:28:00,57.3,55.0,30.03,SSE,155,0.0,0.0,91,0.00,,,0.00,weatherlink.com 1.10,2013-02-27 20:28:00,
2013-02-27 22:43:00,58.0,55.0,30.04,SSE,155,0.0,1.0,90,0.00,,,0.00,weatherlink.com 1.10,2013-02-27 20:43:00,
2013-02-27 22:58:00,58.6,56.0,30.04,ESE,117,0.0,1.0,90,0.00,,,0.00,weatherlink.com 1.10,2013-02-27 20:58:00,
2013-02-27 23:14:00,59.2,56.0,30.03,SSE,160,1.0,2.0,89,0.00,,,0.00,weatherlink.com 1.10,2013-02-27 21:14:00,
2013-02-27 23:29:00,59.0,56.0,30.03,SSW,207,1.0,3.0,89,0.00,,,0.00,weatherlink.com 1.10,2013-02-27 21:29:00,
2013-02-27 23:43:00,58.7,56.0,30.04,SSE,159,0.0,3.0,89,0.00,,,0.00,weatherlink.com 1.10,2013-02-27 21:43:00,
2013-02-27 23:59:00,58.8,56.0,30.04,ESE,123,1.0,3.0,89,0.00,,,0.00,weatherlink.com 1.10,2013-02-27 21:59:00,